Voyageur Independent — CFN4292 — position and weather

sailwx.info

Track history (hours):
 
Tides and Currents Weather Stations Pressure Air Temp Water Temp Dewpoint Dewpoint Depression Visibility Wind Speed Wind Dir Waves Ship Positions

Voyageur Independent

Last reported at 2017-Nov-16 12:22 UTC. Time now 2017-Nov-19 08:27 UTC.
Position N 45°34' W 073°30'.

Length 191 m; draft 6.6 m.

Type: Cargo ship. MMSI: 316607241.

Date/timePositionNaut miles runAvg speedWind from/ knotsBaromVisibWave heightAir tempDewpointWater temp
2017-Nov-16 12:22N 45°34' W 073°30'5 3.5
2017-Nov-16 11:00N 45°30' W 073°31'1 1.9
2017-Nov-16 10:30N 45°29' W 073°31'2 2.9
2017-Nov-16 09:57N 45°27' W 073°30'2 5.2
2017-Nov-16 09:30N 45°25' W 073°31'2 4.1
2017-Nov-16 09:00N 45°24' W 073°34'0 0.4
2017-Nov-16 08:30N 45°24' W 073°34'1 2.0
2017-Nov-16 08:00N 45°24' W 073°36'1 2.6
2017-Nov-16 07:30N 45°24' W 073°37'2 4.5
2017-Nov-16 07:00N 45°25' W 073°40'3 6.0
2017-Nov-16 06:30N 45°24' W 073°45'5 9.9
2017-Nov-16 06:00N 45°22' W 073°50'4 8.2
2017-Nov-16 05:30N 45°19' W 073°55'0 0.4
2017-Nov-16 05:00N 45°19' W 073°55'1 1.5
2017-Nov-16 04:30N 45°18' W 073°56'0 0.6
2017-Nov-16 04:00N 45°18' W 073°56'1 2.0
2017-Nov-16 03:30N 45°17' W 073°56'1 3.0
2017-Nov-16 03:00N 45°16' W 073°57'3 5.4
2017-Nov-16 02:30N 45°14' W 074°00'  
2017-Nov-12 03:01N 45°12' W 074°18'3 9.9
2017-Nov-12 02:42N 45°14' W 074°14'2 9.9
2017-Nov-12 02:30N 45°14' W 074°11'5 8.5
2017-Nov-12 01:58N 45°13' W 074°05'4 8.4
2017-Nov-12 01:30N 45°14' W 073°59'3 6.0
2017-Nov-12 01:00N 45°17' W 073°57'2 3.2
2017-Nov-12 00:30N 45°18' W 073°56'1 1.7
2017-Nov-12 00:00N 45°19' W 073°55'0 0.2
2017-Nov-11 23:30N 45°19' W 073°55'1 2.3
2017-Nov-11 23:00N 45°20' W 073°54'4 7.3
2017-Nov-11 22:30N 45°22' W 073°50'4 8.9
2017-Nov-11 22:00N 45°24' W 073°44'3 6.4
2017-Nov-11 21:30N 45°25' W 073°40'3 5.4
2017-Nov-11 21:00N 45°24' W 073°36'1 2.9
2017-Nov-11 20:30N 45°24' W 073°34'1 1.4
2017-Nov-11 20:00N 45°24' W 073°33'1 2.8
2017-Nov-11 19:30N 45°25' W 073°31'2 4.7
2017-Nov-11 19:00N 45°27' W 073°30'3 3.0
2017-Nov-11 18:06N 45°30' W 073°31'0 0.7
2017-Nov-11 17:58N 45°30' W 073°31'1 1.6
2017-Nov-11 17:23N 45°31' W 073°31'1 3.4
2017-Nov-11 17:00N 45°32' W 073°32'  
Track history (hours):
 
Tides and Currents Weather Stations Pressure Air Temp Water Temp Dewpoint Dewpoint Depression Visibility Wind Speed Wind Dir Waves Ship Positions

Voyageur Independent

Last reported at 2017-Nov-16 12:22 UTC. Time now 2017-Nov-19 08:27 UTC.
Position N 45°34' W 073°30'.

Length 191 m; draft 6.6 m.

Type: Cargo ship. MMSI: 316607241.

Date/timePositionNaut miles runAvg speedWind from/ knotsBaromVisibWave heightAir tempDewpointWater temp
2017-Nov-16 12:22N 45°34' W 073°30'5 3.5
2017-Nov-16 11:00N 45°30' W 073°31'1 1.9
2017-Nov-16 10:30N 45°29' W 073°31'2 2.9
2017-Nov-16 09:57N 45°27' W 073°30'2 5.2
2017-Nov-16 09:30N 45°25' W 073°31'2 4.1
2017-Nov-16 09:00N 45°24' W 073°34'0 0.4
2017-Nov-16 08:30N 45°24' W 073°34'1 2.0
2017-Nov-16 08:00N 45°24' W 073°36'1 2.6
2017-Nov-16 07:30N 45°24' W 073°37'2 4.5
2017-Nov-16 07:00N 45°25' W 073°40'3 6.0
2017-Nov-16 06:30N 45°24' W 073°45'5 9.9
2017-Nov-16 06:00N 45°22' W 073°50'4 8.2
2017-Nov-16 05:30N 45°19' W 073°55'0 0.4
2017-Nov-16 05:00N 45°19' W 073°55'1 1.5
2017-Nov-16 04:30N 45°18' W 073°56'0 0.6
2017-Nov-16 04:00N 45°18' W 073°56'1 2.0
2017-Nov-16 03:30N 45°17' W 073°56'1 3.0
2017-Nov-16 03:00N 45°16' W 073°57'3 5.4
2017-Nov-16 02:30N 45°14' W 074°00'  
2017-Nov-12 03:01N 45°12' W 074°18'3 9.9
2017-Nov-12 02:42N 45°14' W 074°14'2 9.9
2017-Nov-12 02:30N 45°14' W 074°11'5 8.5
2017-Nov-12 01:58N 45°13' W 074°05'4 8.4
2017-Nov-12 01:30N 45°14' W 073°59'3 6.0
2017-Nov-12 01:00N 45°17' W 073°57'2 3.2
2017-Nov-12 00:30N 45°18' W 073°56'1 1.7
2017-Nov-12 00:00N 45°19' W 073°55'0 0.2
2017-Nov-11 23:30N 45°19' W 073°55'1 2.3
2017-Nov-11 23:00N 45°20' W 073°54'4 7.3
2017-Nov-11 22:30N 45°22' W 073°50'4 8.9
2017-Nov-11 22:00N 45°24' W 073°44'3 6.4
2017-Nov-11 21:30N 45°25' W 073°40'3 5.4
2017-Nov-11 21:00N 45°24' W 073°36'1 2.9
2017-Nov-11 20:30N 45°24' W 073°34'1 1.4
2017-Nov-11 20:00N 45°24' W 073°33'1 2.8
2017-Nov-11 19:30N 45°25' W 073°31'2 4.7
2017-Nov-11 19:00N 45°27' W 073°30'3 3.0
2017-Nov-11 18:06N 45°30' W 073°31'0 0.7
2017-Nov-11 17:58N 45°30' W 073°31'1 1.6
2017-Nov-11 17:23N 45°31' W 073°31'1 3.4
2017-Nov-11 17:00N 45°32' W 073°32'  

Dump ship's entire track history